Time;durP1;ratioP1;P1;durP2;ratioP2;P2;SDS_P1;SDS_P2;PMS_P1;PMS_P2;Temp;Humidity;BMP_temperature;BMP_pressure;BME280_temperature;BME280_humidity;BME280_pressure;Samples;Min_cycle;Max_cycle;Signal;HPM_P1;HPM_P2
2023/01/21 00:05:36;;;;;;;12.60;8.50;;;;;;;-0.49;95.45;98375.16;434871;1259;110931;-40
2023/01/21 00:15:43;;;;;;;16.70;8.60;;;;;;;-0.46;95.57;98367.43;434755;1259;109449;-39
2023/01/21 00:25:56;;;;;;;22.20;11.20;;;;;;;-0.45;95.62;98366.13;434957;1253;99221;-40
2023/01/21 00:36:05;;;;;;;15.20;9.10;;;;;;;-0.44;95.67;98369.23;434805;1258;109314;-39
2023/01/21 00:46:13;;;;;;;16.50;9.20;;;;;;;-0.41;95.69;98370.85;434787;1253;97988;-40
2023/01/21 00:56:20;;;;;;;15.30;9.80;;;;;;;-0.39;95.59;98372.73;434879;1252;111818;-39
2023/01/21 01:06:27;;;;;;;14.10;9.50;;;;;;;-0.37;95.79;98365.42;434602;1254;107239;-38
2023/01/21 01:16:34;;;;;;;12.90;8.90;;;;;;;-0.39;95.84;98368.18;434581;1254;98974;-41
2023/01/21 01:26:41;;;;;;;16.00;9.20;;;;;;;-0.40;95.83;98375.36;434692;1257;108614;-38
2023/01/21 01:36:50;;;;;;;17.50;9.30;;;;;;;-0.41;95.79;98375.98;434731;1257;99253;-39
2023/01/21 01:47:01;;;;;;;14.80;8.10;;;;;;;-0.40;95.87;98380.78;434797;1257;112782;-39
2023/01/21 01:57:11;;;;;;;13.00;8.30;;;;;;;-0.41;95.83;98381.73;434609;1257;108166;-39
2023/01/21 02:07:15;;;;;;;13.30;8.10;;;;;;;-0.40;95.73;98374.75;434779;1256;99310;-38
2023/01/21 02:17:25;;;;;;;11.70;7.00;;;;;;;-0.43;95.78;98363.83;434596;1259;109302;-39
2023/01/21 02:37:58;;;;;;;11.80;6.80;;;;;;;-0.56;96.03;98348.05;434490;1266;112114;-39
2023/01/21 02:48:07;;;;;;;11.00;7.00;;;;;;;-0.61;95.88;98341.55;434643;1254;108688;-39
2023/01/21 02:58:18;;;;;;;9.10;6.10;;;;;;;-0.69;95.87;98331.77;435630;1254;390696;-38
2023/01/21 03:08:32;;;;;;;11.50;6.30;;;;;;;-0.74;95.96;98335.27;435018;1257;108005;-38
2023/01/21 03:18:44;;;;;;;11.30;6.00;;;;;;;-0.81;95.99;98337.90;435021;1253;99120;-39
2023/01/21 03:28:52;;;;;;;10.70;6.40;;;;;;;-0.87;96.20;98320.64;435092;1259;111670;-39
2023/01/21 03:39:04;;;;;;;12.20;6.90;;;;;;;-0.94;96.14;98304.57;435083;1258;107674;-39
2023/01/21 03:49:10;;;;;;;8.00;6.40;;;;;;;-0.99;96.31;98298.89;434986;1257;98845;-38
2023/01/21 03:59:16;;;;;;;9.50;6.60;;;;;;;-1.03;96.24;98295.66;435015;1259;107195;-38
2023/01/21 04:09:23;;;;;;;9.00;6.20;;;;;;;-1.05;96.26;98302.15;435072;1253;99218;-40
2023/01/21 04:19:30;;;;;;;8.50;5.90;;;;;;;-1.05;96.37;98310.95;435032;1253;112826;-39
2023/01/21 04:29:37;;;;;;;10.50;6.90;;;;;;;-1.04;96.24;98311.69;434948;1259;107509;-38
2023/01/21 04:39:45;;;;;;;7.60;5.60;;;;;;;-1.05;96.10;98322.65;434965;1253;99720;-39
2023/01/21 04:59:58;;;;;;;8.70;5.80;;;;;;;-1.04;96.18;98328.69;435110;1255;98015;-39
2023/01/21 05:10:06;;;;;;;9.30;5.80;;;;;;;-1.05;96.20;98326.16;435170;1253;111857;-38
2023/01/21 05:20:14;;;;;;;11.20;7.10;;;;;;;-1.06;96.27;98321.58;434939;1266;109169;-39
2023/01/21 05:30:22;;;;;;;15.80;8.00;;;;;;;-1.04;96.38;98321.94;435061;1257;98057;-39
2023/01/21 05:40:29;;;;;;;9.20;6.30;;;;;;;-1.05;96.30;98316.48;435187;1253;106743;-40
2023/01/21 05:50:34;;;;;;;27.00;10.10;;;;;;;-1.06;96.01;98314.12;435006;1257;99253;-39
2023/01/21 06:00:42;;;;;;;35.20;16.30;;;;;;;-1.02;96.18;98317.07;435030;1257;111900;-39
2023/01/21 06:10:49;;;;;;;17.80;8.30;;;;;;;-1.03;96.14;98314.38;435004;1266;108029;-38
2023/01/21 06:20:58;;;;;;;40.40;16.80;;;;;;;-1.05;96.25;98301.48;434985;1265;99221;-40
2023/01/21 06:31:05;;;;;;;16.10;8.10;;;;;;;-1.07;96.32;98301.25;434990;1255;108087;-39
2023/01/21 06:41:13;;;;;;;31.60;12.60;;;;;;;-1.06;96.27;98304.14;435045;1257;98345;-39
2023/01/21 06:51:20;;;;;;;18.30;9.80;;;;;;;-1.03;96.15;98312.23;435017;1257;110980;-40
2023/01/21 07:01:28;;;;;;;20.30;10.30;;;;;;;-0.95;96.26;98318.20;435143;1254;109456;-40
2023/01/21 07:11:37;;;;;;;42.00;16.90;;;;;;;-0.89;96.22;98324.17;435192;1256;99262;-39
2023/01/21 07:21:43;;;;;;;49.60;18.90;;;;;;;-0.94;96.38;98330.70;435120;1257;107108;-40
2023/01/21 07:31:51;;;;;;;36.50;17.40;;;;;;;-0.94;96.10;98331.73;435065;1257;99236;-39
2023/01/21 07:52:04;;;;;;;12.00;8.30;;;;;;;-0.77;96.16;98336.08;435102;1258;109378;-39
2023/01/21 08:02:09;;;;;;;30.00;14.50;;;;;;;-0.68;95.96;98344.35;435152;1266;97931;-40
2023/01/21 08:12:16;;;;;;;30.10;13.00;;;;;;;-0.59;95.98;98353.62;435142;1255;107616;-38
2023/01/21 08:22:22;;;;;;;48.10;21.40;;;;;;;-0.63;96.06;98356.59;435276;1257;99214;-37
2023/01/21 08:32:29;;;;;;;24.50;12.90;;;;;;;-0.60;96.06;98358.00;435225;1254;110442;-39
2023/01/21 08:42:36;;;;;;;19.00;9.40;;;;;;;-0.52;95.88;98360.92;435174;1254;107624;-39
2023/01/21 08:52:50;;;;;;;19.90;11.80;;;;;;;-0.47;95.66;98365.96;435136;1255;98391;-39
2023/01/21 09:02:58;;;;;;;11.90;8.00;;;;;;;-0.44;96.01;98369.96;435104;1254;109460;-40
2023/01/21 09:13:08;;;;;;;30.30;15.90;;;;;;;-0.42;95.71;98375.67;435215;1257;97996;-39
2023/01/21 09:23:25;;;;;;;22.80;12.80;;;;;;;-0.46;95.81;98376.92;435182;1257;111426;-40
2023/01/21 09:33:32;;;;;;;16.30;10.70;;;;;;;-0.44;95.70;98373.98;434841;1253;108749;-40
2023/01/21 09:53:47;;;;;;;13.10;9.80;;;;;;;-0.29;95.56;98383.22;434394;1257;108403;-40
2023/01/21 10:03:52;;;;;;;;;;;;;;;-0.18;95.51;98388.46;434469;1257;99253;-39
2023/01/21 10:14:20;;;;;;;23.10;14.20;;;;;;;-0.21;95.51;98400.55;434361;1257;112073;-39
2023/01/21 10:24:33;;;;;;;22.50;15.20;;;;;;;-0.25;95.50;98400.61;434444;1253;109350;-39
2023/01/21 10:34:45;;;;;;;17.20;13.60;;;;;;;-0.18;95.43;98404.30;434383;1254;99288;-39
2023/01/21 10:44:50;;;;;;;24.70;17.40;;;;;;;-0.04;95.29;98400.42;434349;1259;111248;-40
2023/01/21 11:05:07;;;;;;;15.60;11.30;;;;;;;0.17;95.20;98405.67;434322;1258;99084;-40
2023/01/21 11:15:15;;;;;;;22.50;14.00;;;;;;;0.19;95.25;98401.47;434402;1257;107356;-43
2023/01/21 11:25:25;;;;;;;16.40;12.90;;;;;;;0.23;95.33;98389.76;434412;1253;97952;-41
2023/01/21 11:35:32;;;;;;;17.70;11.00;;;;;;;0.35;95.18;98387.86;434431;1257;111193;-41
2023/01/21 11:45:39;;;;;;;16.60;11.10;;;;;;;0.45;94.94;98380.45;434224;1254;108182;-41
2023/01/21 11:55:45;;;;;;;24.00;15.30;;;;;;;0.47;95.24;98384.15;434440;1254;99266;-39
2023/01/21 12:05:54;;;;;;;27.10;16.30;;;;;;;0.53;95.40;98382.09;434410;1257;106815;-40
2023/01/21 12:16:20;;;;;;;24.60;15.60;;;;;;;0.58;95.17;98379.86;434493;1253;99279;-40
2023/01/21 12:26:31;;;;;;;23.30;15.60;;;;;;;0.53;94.84;98387.79;434352;1253;111273;-39
2023/01/21 12:36:45;;;;;;;20.40;14.50;;;;;;;0.56;94.91;98397.66;434352;1253;106643;-40
2023/01/21 12:46:53;;;;;;;21.30;13.90;;;;;;;0.56;94.77;98407.38;434413;1253;99247;-40
2023/01/21 12:57:03;;;;;;;23.90;15.80;;;;;;;0.69;94.84;98416.41;434429;1257;107322;-39
2023/01/21 13:07:11;;;;;;;31.30;19.80;;;;;;;0.71;95.04;98419.26;434488;1253;99228;-40
2023/01/21 13:17:16;;;;;;;25.30;16.40;;;;;;;0.64;94.91;98427.33;434397;1254;110424;-39
2023/01/21 13:27:30;;;;;;;22.70;16.80;;;;;;;0.55;94.83;98439.06;434383;1253;108573;-41
2023/01/21 13:37:39;;;;;;;29.00;18.20;;;;;;;0.58;94.62;98453.88;434351;1253;99218;-40
2023/01/21 13:47:52;;;;;;;25.40;15.90;;;;;;;0.64;94.63;98470.55;434385;1259;110946;-40
2023/01/21 13:58:00;;;;;;;63.30;28.40;;;;;;;0.62;94.70;98494.66;434401;1253;107548;-40
2023/01/21 14:08:06;;;;;;;41.80;21.40;;;;;;;0.56;94.83;98520.14;434411;1253;98831;-39
2023/01/21 14:28:33;;;;;;;62.30;31.70;;;;;;;0.35;94.67;98541.73;434341;1253;108454;-40
2023/01/21 14:38:47;;;;;;;38.50;21.80;;;;;;;0.33;94.58;98547.10;434422;1254;99242;-42
2023/01/21 14:48:59;;;;;;;33.00;20.50;;;;;;;0.40;94.38;98555.08;434399;1257;107116;-39
2023/01/21 14:59:07;;;;;;;49.10;26.70;;;;;;;0.46;94.43;98567.96;434104;1253;405655;-41
2023/01/21 15:09:17;;;;;;;50.10;30.30;;;;;;;0.46;94.60;98578.48;434527;1253;111302;-40
2023/01/21 15:19:40;;;;;;;91.40;44.70;;;;;;;0.44;94.78;98595.21;434400;1253;106897;-40
2023/01/21 15:29:46;;;;;;;108.60;52.00;;;;;;;0.31;94.59;98612.38;434472;1258;98025;-39
2023/01/21 15:39:53;;;;;;;84.10;44.20;;;;;;;0.20;94.72;98627.06;434499;1257;113125;-40
2023/01/21 15:49:59;;;;;;;71.10;38.40;;;;;;;0.12;94.56;98642.55;434537;1253;108042;-40
2023/01/21 16:00:29;;;;;;;61.70;34.50;;;;;;;0.18;94.54;98651.39;434404;1253;98818;-39
2023/01/21 16:10:41;;;;;;;53.10;28.30;;;;;;;0.29;94.58;98662.71;434489;1253;111244;-38
2023/01/21 16:20:52;;;;;;;65.30;34.00;;;;;;;0.35;94.49;98688.61;434345;1257;107540;-41
2023/01/21 16:30:59;;;;;;;88.60;40.60;;;;;;;0.38;94.91;98715.00;434453;1257;99324;-38
2023/01/21 16:41:24;;;;;;;71.20;38.00;;;;;;;0.24;94.66;98729.12;434436;1253;110373;-40
2023/01/21 17:01:39;;;;;;;78.20;42.90;;;;;;;0.12;94.65;98756.56;434476;1256;99333;-39
2023/01/21 17:11:46;;;;;;;101.20;55.40;;;;;;;0.17;94.56;98768.50;434586;1253;111759;-40
2023/01/21 17:21:59;;;;;;;101.10;51.10;;;;;;;0.17;94.57;98786.56;434378;1253;107521;-40
2023/01/21 17:32:06;;;;;;;78.30;39.90;;;;;;;0.23;94.72;98797.18;434358;1253;99257;-42
2023/01/21 17:42:16;;;;;;;117.50;54.00;;;;;;;0.29;94.80;98806.95;434532;1253;108466;-39
2023/01/21 17:52:24;;;;;;;119.00;60.00;;;;;;;0.14;94.70;98824.10;434526;1253;98861;-40
2023/01/21 18:02:31;;;;;;;95.10;50.10;;;;;;;0.03;94.66;98832.08;434538;1257;111435;-40
2023/01/21 18:12:38;;;;;;;76.10;39.90;;;;;;;0.03;94.78;98841.05;434660;1253;107469;-39
2023/01/21 18:22:46;;;;;;;73.70;37.80;;;;;;;0.09;94.69;98868.00;434644;1253;98840;-40
2023/01/21 18:32:54;;;;;;;71.60;37.50;;;;;;;0.21;94.85;98890.44;434661;1257;113019;-39
2023/01/21 18:43:01;;;;;;;96.10;48.30;;;;;;;0.41;94.86;98902.63;434558;1253;107329;-40
2023/01/21 18:53:09;;;;;;;106.30;53.50;;;;;;;0.50;94.89;98919.38;434772;1257;99240;-40
2023/01/21 19:13:23;;;;;;;134.80;65.90;;;;;;;0.14;94.29;98943.91;434805;1254;99218;-40
2023/01/21 19:23:31;;;;;;;121.50;66.30;;;;;;;0.01;94.39;98964.14;434801;1257;111033;-40
2023/01/21 19:33:40;;;;;;;113.20;60.10;;;;;;;0.10;94.51;98978.17;434711;1253;107172;-40
2023/01/21 19:43:47;;;;;;;107.50;57.90;;;;;;;0.28;94.88;98983.70;434810;1253;98036;-40
2023/01/21 19:53:55;;;;;;;166.90;78.00;;;;;;;0.32;94.55;99000.38;434807;1253;109491;-39
2023/01/21 20:04:02;;;;;;;138.20;65.10;;;;;;;0.32;94.51;99001.23;435002;1253;99359;-40
2023/01/21 20:14:09;;;;;;;135.00;63.80;;;;;;;0.17;94.69;99012.60;434985;1257;112969;-39
2023/01/21 20:24:16;;;;;;;118.10;61.10;;;;;;;0.04;94.55;99028.11;434943;1257;108153;-41
2023/01/21 20:34:23;;;;;;;97.90;53.20;;;;;;;-0.06;94.53;99036.08;435029;1253;99285;-38
2023/01/21 20:44:31;;;;;;;87.10;47.40;;;;;;;-0.03;94.53;99054.61;434933;1253;112032;-40
2023/01/21 20:54:39;;;;;;;102.50;50.90;;;;;;;0.09;94.78;99064.86;434790;1253;108605;-40
2023/01/21 21:04:46;;;;;;;100.30;52.70;;;;;;;0.17;94.45;99076.57;434914;1253;99044;-41
2023/01/21 21:24:59;;;;;;;122.80;58.90;;;;;;;0.12;94.54;99101.35;434988;1254;99225;-39
2023/01/21 21:35:04;;;;;;;100.20;53.50;;;;;;;-0.10;94.19;99109.75;434940;1253;111089;-40
2023/01/21 21:45:12;;;;;;;98.90;53.40;;;;;;;-0.16;94.14;99116.42;434904;1253;108145;-38
2023/01/21 21:55:18;;;;;;;97.10;52.00;;;;;;;-0.21;94.16;99113.50;434878;1253;99113;-39
2023/01/21 22:05:26;;;;;;;113.50;57.00;;;;;;;-0.13;94.61;99131.91;434888;1253;107189;-39
2023/01/21 22:15:34;;;;;;;140.30;68.10;;;;;;;-0.10;94.51;99143.52;434825;1257;98835;-39
2023/01/21 22:25:41;;;;;;;132.10;64.60;;;;;;;-0.22;94.26;99158.02;434802;1259;110711;-40
2023/01/21 22:35:48;;;;;;;114.80;61.40;;;;;;;-0.32;94.37;99170.48;434912;1257;108512;-42
2023/01/21 22:45:56;;;;;;;99.70;52.50;;;;;;;-0.29;94.51;99174.02;434712;1253;98019;-40
2023/01/21 22:56:04;;;;;;;76.10;40.20;;;;;;;-0.24;94.58;99173.00;434869;1259;110192;-41
2023/01/21 23:06:11;;;;;;;121.30;57.10;;;;;;;-0.16;94.50;99183.97;434820;1259;108674;-39
2023/01/21 23:16:20;;;;;;;129.50;57.70;;;;;;;-0.16;94.56;99194.08;434865;1259;98850;-42
2023/01/21 23:26:28;;;;;;;131.10;58.00;;;;;;;-0.25;94.62;99191.94;435049;1257;110414;-38
2023/01/21 23:36:33;;;;;;;143.40;67.20;;;;;;;-0.37;94.57;99201.59;434700;1253;108209;-38
2023/01/21 23:46:42;;;;;;;78.10;42.40;;;;;;;-0.42;94.45;99215.21;434824;1256;98824;-40
2023/01/21 23:56:49;;;;;;;63.90;37.50;;;;;;;-0.37;94.61;99221.14;434773;1257;110754;-40
